<?xml version="1.0" encoding="UTF-8" standalone="no" ?>
<gpx xmlns="http://www.topografix.com/GPX/1/1" xmlns:xsi="http://www.w3.org/2001/XMLSchema-instance" xsi:schemaLocation="http://www.topografix.com/GPX/1/1 http://www.topografix.com/GPX/1/1/gpx.xsd" version="1.1" creator="VisuGPX - https://www.visugpx.com">
  <metadata>
    <name>grand_colombier-TET</name>
    <desc><![CDATA[name=2022 09 24 Begin of the TET section 20 Track
cmt=
desc=
time=2022-09-24T09:46:08Z]]></desc>
  </metadata>
  <wpt lat="45.85842" lon="5.77164">
    <ele>661.1</ele>
    <name><![CDATA[à vérif]]></name>
    <desc><![CDATA[name=à vérif]]></desc>
  </wpt>
  <wpt lat="45.86391" lon="5.82138">
    <ele>238.1</ele>
    <name><![CDATA[ok]]></name>
    <desc><![CDATA[name=ok]]></desc>
  </wpt>
  <wpt lat="46.00337" lon="5.81125">
    <ele>271.3</ele>
    <name><![CDATA[ok]]></name>
    <desc><![CDATA[name=ok]]></desc>
  </wpt>
  <wpt lat="45.98447" lon="5.79127">
    <ele>573.6</ele>
    <name><![CDATA[ok]]></name>
    <desc><![CDATA[name=ok]]></desc>
  </wpt>
  <wpt lat="45.97026" lon="5.76896">
    <ele>1090.4</ele>
    <name><![CDATA[ok]]></name>
    <desc><![CDATA[name=ok]]></desc>
  </wpt>
  <wpt lat="46.09692" lon="5.77954">
    <ele>576.7</ele>
    <name><![CDATA[ok]]></name>
    <desc><![CDATA[name=ok]]></desc>
  </wpt>
  <wpt lat="46.17247" lon="5.75381">
    <ele>531.9</ele>
    <name><![CDATA[ok]]></name>
    <desc><![CDATA[name=ok]]></desc>
  </wpt>
  <wpt lat="45.89804" lon="5.73838">
    <ele>910.1</ele>
    <name><![CDATA[ok]]></name>
    <desc><![CDATA[name=ok]]></desc>
  </wpt>
  <wpt lat="45.92864" lon="5.73929">
    <ele>830.7</ele>
  </wpt>
  <wpt lat="45.95229" lon="5.74925">
    <ele>1311.1</ele>
  </wpt>
  <wpt lat="45.86162" lon="5.79089">
    <ele>594.4</ele>
    <name><![CDATA[par la route]]></name>
    <desc><![CDATA[name=par la route]]></desc>
  </wpt>
  <wpt lat="45.92514" lon="5.79762">
    <ele>682.4</ele>
    <name><![CDATA[Vérif si autorisé]]></name>
    <desc><![CDATA[name=Vérif si autorisé]]></desc>
  </wpt>
  <wpt lat="45.89315" lon="5.7063">
    <ele>484.5</ele>
    <name><![CDATA[ok]]></name>
    <desc><![CDATA[name=ok]]></desc>
  </wpt>
  <wpt lat="45.87199" lon="5.7075">
    <ele>246.1</ele>
    <name><![CDATA[ok]]></name>
    <desc><![CDATA[name=ok]]></desc>
  </wpt>
  <wpt lat="45.8999" lon="5.83082">
    <ele>240</ele>
    <name><![CDATA[ok]]></name>
    <desc><![CDATA[name=ok]]></desc>
  </wpt>
  <trk>
    <name><![CDATA[Colombier - Col de la biche]]></name>
    <desc><![CDATA[name=Colombier - Col de la biche
cmt=
desc=
time=2020-09-17T14:00:01Z]]></desc>
    <extensions>
      <line xmlns="http://www.topografix.com/GPX/gpx_style/0/2">
        <color>FF0000</color>
        <width>4</width>
      </line>
    </extensions>
    <trkseg>
      <trkpt lat="45.93717" lon="5.80879">
        <ele>423.591</ele>
        <time>2020-09-17T14:00:01Z</time>
      </trkpt>
      <trkpt lat="45.93618" lon="5.80802">
        <ele>423.581</ele>
        <time>2020-09-17T14:01:58Z</time>
      </trkpt>
      <trkpt lat="45.93537" lon="5.80764">
        <ele>423.519</ele>
        <time>2020-09-17T14:02:07Z</time>
      </trkpt>
      <trkpt lat="45.93487" lon="5.80707">
        <ele>423.508</ele>
        <time>2020-09-17T14:02:15Z</time>
      </trkpt>
      <trkpt lat="45.93427" lon="5.80669">
        <ele>423.524</ele>
        <time>2020-09-17T14:02:26Z</time>
      </trkpt>
      <trkpt lat="45.93373" lon="5.80678">
        <ele>439.575</ele>
        <time>2020-09-17T14:02:33Z</time>
      </trkpt>
      <trkpt lat="45.93311" lon="5.80665">
        <ele>459.558</ele>
        <time>2020-09-17T14:02:40Z</time>
      </trkpt>
      <trkpt lat="45.93246" lon="5.80622">
        <ele>476.963</ele>
        <time>2020-09-17T14:02:48Z</time>
      </trkpt>
      <trkpt lat="45.93194" lon="5.8054">
        <ele>480.915</ele>
        <time>2020-09-17T14:02:57Z</time>
      </trkpt>
      <trkpt lat="45.93165" lon="5.8043">
        <ele>490.061</ele>
        <time>2020-09-17T14:03:27Z</time>
      </trkpt>
      <trkpt lat="45.93143" lon="5.80418">
        <ele>490.962</ele>
        <time>2020-09-17T14:03:31Z</time>
      </trkpt>
      <trkpt lat="45.93096" lon="5.80426">
        <ele>493.191</ele>
        <time>2020-09-17T14:03:38Z</time>
      </trkpt>
      <trkpt lat="45.93041" lon="5.80381">
        <ele>494.815</ele>
        <time>2020-09-17T14:03:45Z</time>
      </trkpt>
      <trkpt lat="45.92931" lon="5.8025">
        <ele>504.765</ele>
        <time>2020-09-17T14:04:01Z</time>
      </trkpt>
      <trkpt lat="45.92936" lon="5.80239">
        <ele>506.511</ele>
        <time>2020-09-17T14:04:05Z</time>
      </trkpt>
      <trkpt lat="45.93015" lon="5.80269">
        <ele>517.108</ele>
        <time>2020-09-17T14:04:14Z</time>
      </trkpt>
      <trkpt lat="45.93077" lon="5.8024">
        <ele>526.166</ele>
        <time>2020-09-17T14:04:22Z</time>
      </trkpt>
      <trkpt lat="45.93081" lon="5.80225">
        <ele>532.297</ele>
        <time>2020-09-17T14:04:28Z</time>
      </trkpt>
      <trkpt lat="45.93022" lon="5.802">
        <ele>546.17</ele>
        <time>2020-09-17T14:04:36Z</time>
      </trkpt>
      <trkpt lat="45.92984" lon="5.80125">
        <ele>550.225</ele>
        <time>2020-09-17T14:04:46Z</time>
      </trkpt>
      <trkpt lat="45.92821" lon="5.80053">
        <ele>559.727</ele>
        <time>2020-09-17T14:05:01Z</time>
      </trkpt>
      <trkpt lat="45.92682" lon="5.79968">
        <ele>565.693</ele>
        <time>2020-09-17T14:05:12Z</time>
      </trkpt>
      <trkpt lat="45.92637" lon="5.79979">
        <ele>569.174</ele>
        <time>2020-09-17T14:05:19Z</time>
      </trkpt>
      <trkpt lat="45.92608" lon="5.79968">
        <ele>573.343</ele>
        <time>2020-09-17T14:05:24Z</time>
      </trkpt>
      <trkpt lat="45.92477" lon="5.79835">
        <ele>580.992</ele>
        <time>2020-09-17T14:05:40Z</time>
      </trkpt>
      <trkpt lat="45.9242" lon="5.79686">
        <ele>597.673</ele>
        <time>2020-09-17T14:06:00Z</time>
      </trkpt>
      <trkpt lat="45.92491" lon="5.79719">
        <ele>616.72</ele>
        <time>2020-09-17T14:06:09Z</time>
      </trkpt>
      <trkpt lat="45.9251" lon="5.7971">
        <ele>626.908</ele>
        <time>2020-09-17T14:06:15Z</time>
      </trkpt>
      <trkpt lat="45.92526" lon="5.79726">
        <ele>633.664</ele>
        <time>2020-09-17T14:06:18Z</time>
      </trkpt>
      <trkpt lat="45.92573" lon="5.7972">
        <ele>646.995</ele>
        <time>2020-09-17T14:06:27Z</time>
      </trkpt>
      <trkpt lat="45.92529" lon="5.79685">
        <ele>659.618</ele>
        <time>2020-09-17T14:06:37Z</time>
      </trkpt>
      <trkpt lat="45.92522" lon="5.79651">
        <ele>664.053</ele>
        <time>2020-09-17T14:06:45Z</time>
      </trkpt>
      <trkpt lat="45.92572" lon="5.7967">
        <ele>673.385</ele>
        <time>2020-09-17T14:06:53Z</time>
      </trkpt>
      <trkpt lat="45.92645" lon="5.79656">
        <ele>681.571</ele>
        <time>2020-09-17T14:07:02Z</time>
      </trkpt>
      <trkpt lat="45.92676" lon="5.79682">
        <ele>687.212</ele>
        <time>2020-09-17T14:07:08Z</time>
      </trkpt>
      <trkpt lat="45.92712" lon="5.79679">
        <ele>692.271</ele>
        <time>2020-09-17T14:07:14Z</time>
      </trkpt>
      <trkpt lat="45.9274" lon="5.79741">
        <ele>707.775</ele>
        <time>2020-09-17T14:07:25Z</time>
      </trkpt>
      <trkpt lat="45.92742" lon="5.79681">
        <ele>726.628</ele>
        <time>2020-09-17T14:07:36Z</time>
      </trkpt>
      <trkpt lat="45.92711" lon="5.79586">
        <ele>739.12</ele>
        <time>2020-09-17T14:07:52Z</time>
      </trkpt>
      <trkpt lat="45.9279" lon="5.79646">
        <ele>763.308</ele>
        <time>2020-09-17T14:08:04Z</time>
      </trkpt>
      <trkpt lat="45.92806" lon="5.79637">
        <ele>773.272</ele>
        <time>2020-09-17T14:08:10Z</time>
      </trkpt>
      <trkpt lat="45.92751" lon="5.79546">
        <ele>790.513</ele>
        <time>2020-09-17T14:08:22Z</time>
      </trkpt>
      <trkpt lat="45.9273" lon="5.79435">
        <ele>797.986</ele>
        <time>2020-09-17T14:08:33Z</time>
      </trkpt>
      <trkpt lat="45.92699" lon="5.79456">
        <ele>801.981</ele>
        <time>2020-09-17T14:08:40Z</time>
      </trkpt>
      <trkpt lat="45.92663" lon="5.79439">
        <ele>804.313</ele>
        <time>2020-09-17T14:08:46Z</time>
      </trkpt>
      <trkpt lat="45.92651" lon="5.79388">
        <ele>811.969</ele>
        <time>2020-09-17T14:08:55Z</time>
      </trkpt>
      <trkpt lat="45.92549" lon="5.7934">
        <ele>834.71</ele>
        <time>2020-09-17T14:09:06Z</time>
      </trkpt>
      <trkpt lat="45.92528" lon="5.79293">
        <ele>848.099</ele>
        <time>2020-09-17T14:09:13Z</time>
      </trkpt>
      <trkpt lat="45.92573" lon="5.79289">
        <ele>856.312</ele>
        <time>2020-09-17T14:09:20Z</time>
      </trkpt>
      <trkpt lat="45.92625" lon="5.79251">
        <ele>863.732</ele>
        <time>2020-09-17T14:09:26Z</time>
      </trkpt>
      <trkpt lat="45.92772" lon="5.79245">
        <ele>885.605</ele>
        <time>2020-09-17T14:09:44Z</time>
      </trkpt>
      <trkpt lat="45.92834" lon="5.79179">
        <ele>891.208</ele>
        <time>2020-09-17T14:09:52Z</time>
      </trkpt>
      <trkpt lat="45.92861" lon="5.79198">
        <ele>893.486</ele>
        <time>2020-09-17T14:09:58Z</time>
      </trkpt>
      <trkpt lat="45.9285" lon="5.79238">
        <ele>896.257</ele>
        <time>2020-09-17T14:10:02Z</time>
      </trkpt>
      <trkpt lat="45.92873" lon="5.79282">
        <ele>903.53</ele>
        <time>2020-09-17T14:10:10Z</time>
      </trkpt>
      <trkpt lat="45.92896" lon="5.79248">
        <ele>908.565</ele>
        <time>2020-09-17T14:10:16Z</time>
      </trkpt>
      <trkpt lat="45.9298" lon="5.79227">
        <ele>913.717</ele>
        <time>2020-09-17T14:10:25Z</time>
      </trkpt>
      <trkpt lat="45.93009" lon="5.7919">
        <ele>918.223</ele>
        <time>2020-09-17T14:10:30Z</time>
      </trkpt>
      <trkpt lat="45.93094" lon="5.79183">
        <ele>927.394</ele>
        <time>2020-09-17T14:10:40Z</time>
      </trkpt>
      <trkpt lat="45.93097" lon="5.79162">
        <ele>929.033</ele>
        <time>2020-09-17T14:10:44Z</time>
      </trkpt>
      <trkpt lat="45.93043" lon="5.79073">
        <ele>935.399</ele>
        <time>2020-09-17T14:10:52Z</time>
      </trkpt>
      <trkpt lat="45.93006" lon="5.78883">
        <ele>955.207</ele>
        <time>2020-09-17T14:11:04Z</time>
      </trkpt>
      <trkpt lat="45.92978" lon="5.7885">
        <ele>959.727</ele>
        <time>2020-09-17T14:11:09Z</time>
      </trkpt>
      <trkpt lat="45.92816" lon="5.78821">
        <ele>971.308</ele>
        <time>2020-09-17T14:11:24Z</time>
      </trkpt>
      <trkpt lat="45.92658" lon="5.78818">
        <ele>982.664</ele>
        <time>2020-09-17T14:11:37Z</time>
      </trkpt>
      <trkpt lat="45.9258" lon="5.78788">
        <ele>989.965</ele>
        <time>2020-09-17T14:11:44Z</time>
      </trkpt>
      <trkpt lat="45.92536" lon="5.78788">
        <ele>993.858</ele>
        <time>2020-09-17T14:11:49Z</time>
      </trkpt>
      <trkpt lat="45.92408" lon="5.78739">
        <ele>999.793</ele>
        <time>2020-09-17T14:12:07Z</time>
      </trkpt>
      <trkpt lat="45.92393" lon="5.78673">
        <ele>1005.285</ele>
        <time>2020-09-17T14:12:14Z</time>
      </trkpt>
      <trkpt lat="45.92368" lon="5.78682">
        <ele>1009.491</ele>
        <time>2020-09-17T14:12:19Z</time>
      </trkpt>
      <trkpt lat="45.9243" lon="5.78626">
        <ele>1021.572</ele>
        <time>2020-09-17T14:12:27Z</time>
      </trkpt>
      <trkpt lat="45.9246" lon="5.78526">
        <ele>1032.931</ele>
        <time>2020-09-17T14:12:37Z</time>
      </trkpt>
      <trkpt lat="45.92487" lon="5.78485">
        <ele>1035.564</ele>
        <time>2020-09-17T14:12:42Z</time>
      </trkpt>
      <trkpt lat="45.92605" lon="5.7843">
        <ele>1045.306</ele>
        <time>2020-09-17T14:13:17Z</time>
      </trkpt>
      <trkpt lat="45.92878" lon="5.78395">
        <ele>1049.816</ele>
        <time>2020-09-17T14:13:46Z</time>
      </trkpt>
      <trkpt lat="45.93008" lon="5.78398">
        <ele>1052.508</ele>
        <time>2020-09-17T14:14:01Z</time>
      </trkpt>
      <trkpt lat="45.93153" lon="5.78362">
        <ele>1055.711</ele>
        <time>2020-09-17T14:14:16Z</time>
      </trkpt>
      <trkpt lat="45.93269" lon="5.78305">
        <ele>1066.362</ele>
        <time>2020-09-17T14:14:25Z</time>
      </trkpt>
      <trkpt lat="45.9335" lon="5.78301">
        <ele>1073.825</ele>
        <time>2020-09-17T14:14:34Z</time>
      </trkpt>
      <trkpt lat="45.93463" lon="5.78254">
        <ele>1080.06</ele>
        <time>2020-09-17T14:14:46Z</time>
      </trkpt>
      <trkpt lat="45.93538" lon="5.78244">
        <ele>1082.522</ele>
        <time>2020-09-17T14:14:53Z</time>
      </trkpt>
      <trkpt lat="45.93681" lon="5.78187">
        <ele>1079.398</ele>
        <time>2020-09-17T14:15:08Z</time>
      </trkpt>
      <trkpt lat="45.93765" lon="5.78067">
        <ele>1085.679</ele>
        <time>2020-09-17T14:15:14Z</time>
      </trkpt>
      <trkpt lat="45.93803" lon="5.78054">
        <ele>1103.718</ele>
        <time>2020-09-17T14:15:23Z</time>
      </trkpt>
      <trkpt lat="45.93722" lon="5.78067">
        <ele>1123.437</ele>
        <time>2020-09-17T14:15:39Z</time>
      </trkpt>
      <trkpt lat="45.93315" lon="5.78017">
        <ele>1152.549</ele>
        <time>2020-09-17T14:16:34Z</time>
      </trkpt>
      <trkpt lat="45.93261" lon="5.77963">
        <ele>1158.113</ele>
        <time>2020-09-17T14:16:47Z</time>
      </trkpt>
      <trkpt lat="45.93173" lon="5.77967">
        <ele>1172.408</ele>
        <time>2020-09-17T14:17:00Z</time>
      </trkpt>
      <trkpt lat="45.93105" lon="5.77906">
        <ele>1190.878</ele>
        <time>2020-09-17T14:17:16Z</time>
      </trkpt>
      <trkpt lat="45.93053" lon="5.77795">
        <ele>1210.019</ele>
        <time>2020-09-17T14:17:33Z</time>
      </trkpt>
      <trkpt lat="45.93004" lon="5.7778">
        <ele>1221.262</ele>
        <time>2020-09-17T14:17:40Z</time>
      </trkpt>
      <trkpt lat="45.92849" lon="5.77666">
        <ele>1261.367</ele>
        <time>2020-09-17T14:17:58Z</time>
      </trkpt>
      <trkpt lat="45.92812" lon="5.77688">
        <ele>1270.999</ele>
        <time>2020-09-17T14:18:04Z</time>
      </trkpt>
      <trkpt lat="45.9279" lon="5.77724">
        <ele>1274.945</ele>
        <time>2020-09-17T14:18:11Z</time>
      </trkpt>
      <trkpt lat="45.92781" lon="5.77672">
        <ele>1276.686</ele>
        <time>2020-09-17T14:18:23Z</time>
      </trkpt>
      <trkpt lat="45.92739" lon="5.77655">
        <ele>1274.835</ele>
        <time>2020-09-17T14:18:29Z</time>
      </trkpt>
      <trkpt lat="45.92688" lon="5.77713">
        <ele>1278.732</ele>
        <time>2020-09-17T14:18:39Z</time>
      </trkpt>
      <trkpt lat="45.92521" lon="5.77717">
        <ele>1277.292</ele>
        <time>2020-09-17T14:19:06Z</time>
      </trkpt>
      <trkpt lat="45.92465" lon="5.77661">
        <ele>1278.411</ele>
        <time>2020-09-17T14:19:16Z</time>
      </trkpt>
      <trkpt lat="45.92421" lon="5.7765">
        <ele>1280.508</ele>
        <time>2020-09-17T14:19:23Z</time>
      </trkpt>
      <trkpt lat="45.9237" lon="5.7759">
        <ele>1286.288</ele>
        <time>2020-09-17T14:20:18Z</time>
      </trkpt>
      <trkpt lat="45.92257" lon="5.77559">
        <ele>1290.629</ele>
        <time>2020-09-17T14:20:33Z</time>
      </trkpt>
      <trkpt lat="45.92199" lon="5.77565">
        <ele>1291.072</ele>
        <time>2020-09-17T14:20:39Z</time>
      </trkpt>
      <trkpt lat="45.92136" lon="5.77609">
        <ele>1292.647</ele>
        <time>2020-09-17T14:20:50Z</time>
      </trkpt>
      <trkpt lat="45.92039" lon="5.7762">
        <ele>1297.799</ele>
        <time>2020-09-17T14:21:05Z</time>
      </trkpt>
      <trkpt lat="45.92004" lon="5.77596">
        <ele>1299.695</ele>
        <time>2020-09-17T14:21:11Z</time>
      </trkpt>
      <trkpt lat="45.91954" lon="5.77504">
        <ele>1301.936</ele>
        <time>2020-09-17T14:21:23Z</time>
      </trkpt>
      <trkpt lat="45.91943" lon="5.77396">
        <ele>1301.935</ele>
        <time>2020-09-17T14:21:35Z</time>
      </trkpt>
      <trkpt lat="45.91887" lon="5.7724">
        <ele>1302.794</ele>
        <time>2020-09-17T14:21:52Z</time>
      </trkpt>
      <trkpt lat="45.91833" lon="5.77203">
        <ele>1304.757</ele>
        <time>2020-09-17T14:21:58Z</time>
      </trkpt>
      <trkpt lat="45.9173" lon="5.77203">
        <ele>1307.322</ele>
        <time>2020-09-17T14:22:09Z</time>
      </trkpt>
      <trkpt lat="45.91695" lon="5.77127">
        <ele>1310.808</ele>
        <time>2020-09-17T14:22:18Z</time>
      </trkpt>
      <trkpt lat="45.91666" lon="5.771">
        <ele>1314.294</ele>
        <time>2020-09-17T14:22:36Z</time>
      </trkpt>
      <trkpt lat="45.91586" lon="5.77127">
        <ele>1315.535</ele>
        <time>2020-09-17T14:22:44Z</time>
      </trkpt>
      <trkpt lat="45.91534" lon="5.77209">
        <ele>1317.668</ele>
        <time>2020-09-17T14:22:54Z</time>
      </trkpt>
      <trkpt lat="45.91469" lon="5.77252">
        <ele>1315.433</ele>
        <time>2020-09-17T14:23:02Z</time>
      </trkpt>
      <trkpt lat="45.91447" lon="5.77248">
        <ele>1315.185</ele>
        <time>2020-09-17T14:23:04Z</time>
      </trkpt>
      <trkpt lat="45.91428" lon="5.77199">
        <ele>1315.521</ele>
        <time>2020-09-17T14:23:11Z</time>
      </trkpt>
      <trkpt lat="45.91385" lon="5.7716">
        <ele>1315.232</ele>
        <time>2020-09-17T14:23:16Z</time>
      </trkpt>
      <trkpt lat="45.91322" lon="5.7716">
        <ele>1315.041</ele>
        <time>2020-09-17T14:23:24Z</time>
      </trkpt>
      <trkpt lat="45.91162" lon="5.77086">
        <ele>1328.183</ele>
        <time>2020-09-17T14:23:39Z</time>
      </trkpt>
      <trkpt lat="45.91053" lon="5.77186">
        <ele>1327.925</ele>
        <time>2020-09-17T14:23:52Z</time>
      </trkpt>
      <trkpt lat="45.91017" lon="5.77195">
        <ele>1327.917</ele>
        <time>2020-09-17T14:23:57Z</time>
      </trkpt>
      <trkpt lat="45.90862" lon="5.77168">
        <ele>1321.508</ele>
        <time>2020-09-17T14:24:13Z</time>
      </trkpt>
      <trkpt lat="45.9071" lon="5.77085">
        <ele>1319.943</ele>
        <time>2020-09-17T14:24:31Z</time>
      </trkpt>
      <trkpt lat="45.90696" lon="5.77091">
        <ele>1319.964</ele>
        <time>2020-09-17T14:24:33Z</time>
      </trkpt>
      <trkpt lat="45.90683" lon="5.77132">
        <ele>1318.977</ele>
        <time>2020-09-17T14:24:37Z</time>
      </trkpt>
      <trkpt lat="45.90727" lon="5.77218">
        <ele>1313.992</ele>
        <time>2020-09-17T14:29:20Z</time>
      </trkpt>
      <trkpt lat="45.90712" lon="5.77247">
        <ele>1310.584</ele>
        <time>2020-09-17T14:29:24Z</time>
      </trkpt>
      <trkpt lat="45.90651" lon="5.77285">
        <ele>1306.39</ele>
        <time>2020-09-17T14:29:31Z</time>
      </trkpt>
      <trkpt lat="45.90582" lon="5.77292">
        <ele>1302.381</ele>
        <time>2020-09-17T14:29:38Z</time>
      </trkpt>
      <trkpt lat="45.90402" lon="5.77347">
        <ele>1294.47</ele>
        <time>2020-09-17T14:29:57Z</time>
      </trkpt>
      <trkpt lat="45.90331" lon="5.77494">
        <ele>1287.877</ele>
        <time>2020-09-17T14:30:12Z</time>
      </trkpt>
      <trkpt lat="45.90335" lon="5.7752">
        <ele>1285.961</ele>
        <time>2020-09-17T14:30:15Z</time>
      </trkpt>
      <trkpt lat="45.90355" lon="5.77531">
        <ele>1282.327</ele>
        <time>2020-09-17T14:30:20Z</time>
      </trkpt>
      <trkpt lat="45.90403" lon="5.77478">
        <ele>1277.008</ele>
        <time>2020-09-17T14:30:26Z</time>
      </trkpt>
      <trkpt lat="45.9047" lon="5.77468">
        <ele>1270.782</ele>
        <time>2020-09-17T14:30:34Z</time>
      </trkpt>
      <trkpt lat="45.90633" lon="5.77547">
        <ele>1259.413</ele>
        <time>2020-09-17T14:30:53Z</time>
      </trkpt>
      <trkpt lat="45.90617" lon="5.77575">
        <ele>1258.196</ele>
        <time>2020-09-17T14:31:04Z</time>
      </trkpt>
      <trkpt lat="45.9052" lon="5.7761">
        <ele>1256.441</ele>
        <time>2020-09-17T14:31:18Z</time>
      </trkpt>
      <trkpt lat="45.90319" lon="5.7763">
        <ele>1251.583</ele>
        <time>2020-09-17T14:31:40Z</time>
      </trkpt>
      <trkpt lat="45.90207" lon="5.77592">
        <ele>1251.979</ele>
        <time>2020-09-17T14:31:50Z</time>
      </trkpt>
      <trkpt lat="45.89936" lon="5.77537">
        <ele>1260.72</ele>
        <time>2020-09-17T14:32:14Z</time>
      </trkpt>
      <trkpt lat="45.89857" lon="5.77495">
        <ele>1274.159</ele>
        <time>2020-09-17T14:32:24Z</time>
      </trkpt>
      <trkpt lat="45.89813" lon="5.77374">
        <ele>1275.142</ele>
        <time>2020-09-17T14:32:46Z</time>
      </trkpt>
      <trkpt lat="45.89752" lon="5.77326">
        <ele>1273.022</ele>
        <time>2020-09-17T14:32:59Z</time>
      </trkpt>
      <trkpt lat="45.89747" lon="5.77227">
        <ele>1268.414</ele>
        <time>2020-09-17T14:33:15Z</time>
      </trkpt>
      <trkpt lat="45.89724" lon="5.77136">
        <ele>1268.908</ele>
        <time>2020-09-17T14:35:47Z</time>
      </trkpt>
      <trkpt lat="45.89678" lon="5.77127">
        <ele>1271.259</ele>
        <time>2020-09-17T14:35:58Z</time>
      </trkpt>
      <trkpt lat="45.89632" lon="5.77068">
        <ele>1271.54</ele>
        <time>2020-09-17T14:36:07Z</time>
      </trkpt>
      <trkpt lat="45.89579" lon="5.77031">
        <ele>1272.833</ele>
        <time>2020-09-17T14:36:18Z</time>
      </trkpt>
      <trkpt lat="45.89453" lon="5.77001">
        <ele>1280.518</ele>
        <time>2020-09-17T14:36:41Z</time>
      </trkpt>
      <trkpt lat="45.89395" lon="5.7692">
        <ele>1286.09</ele>
        <time>2020-09-17T14:36:56Z</time>
      </trkpt>
      <trkpt lat="45.89371" lon="5.76814">
        <ele>1291.536</ele>
        <time>2020-09-17T14:37:28Z</time>
      </trkpt>
      <trkpt lat="45.89321" lon="5.76792">
        <ele>1291.197</ele>
        <time>2020-09-17T14:37:46Z</time>
      </trkpt>
      <trkpt lat="45.8933" lon="5.76746">
        <ele>1293.176</ele>
        <time>2020-09-17T14:38:01Z</time>
      </trkpt>
      <trkpt lat="45.89292" lon="5.76728">
        <ele>1301.518</ele>
        <time>2020-09-17T14:38:08Z</time>
      </trkpt>
      <trkpt lat="45.89223" lon="5.76736">
        <ele>1314.798</ele>
        <time>2020-09-17T14:38:18Z</time>
      </trkpt>
      <trkpt lat="45.89144" lon="5.76698">
        <ele>1320.617</ele>
        <time>2020-09-17T14:38:30Z</time>
      </trkpt>
      <trkpt lat="45.89072" lon="5.76689">
        <ele>1321.308</ele>
        <time>2020-09-17T14:38:56Z</time>
      </trkpt>
      <trkpt lat="45.88602" lon="5.76484">
        <ele>1353.866</ele>
        <time>2020-09-17T14:40:17Z</time>
      </trkpt>
      <trkpt lat="45.88552" lon="5.76404">
        <ele>1357.237</ele>
        <time>2020-09-17T14:40:34Z</time>
      </trkpt>
      <trkpt lat="45.88471" lon="5.76336">
        <ele>1356.93</ele>
        <time>2020-09-17T14:41:01Z</time>
      </trkpt>
      <trkpt lat="45.88576" lon="5.7643">
        <ele>1360.425</ele>
        <time>2020-09-17T14:41:27Z</time>
      </trkpt>
      <trkpt lat="45.88612" lon="5.76491">
        <ele>1359.327</ele>
        <time>2020-09-17T14:41:42Z</time>
      </trkpt>
      <trkpt lat="45.88581" lon="5.76546">
        <ele>1355.543</ele>
        <time>2020-09-17T14:41:54Z</time>
      </trkpt>
      <trkpt lat="45.88541" lon="5.76565">
        <ele>1349.464</ele>
        <time>2020-09-17T14:42:03Z</time>
      </trkpt>
      <trkpt lat="45.88376" lon="5.76537">
        <ele>1351.053</ele>
        <time>2020-09-17T14:42:44Z</time>
      </trkpt>
      <trkpt lat="45.88363" lon="5.76548">
        <ele>1350.889</ele>
        <time>2020-09-17T14:43:13Z</time>
      </trkpt>
      <trkpt lat="45.8831" lon="5.76297">
        <ele>1364.406</ele>
        <time>2020-09-17T14:44:44Z</time>
      </trkpt>
      <trkpt lat="45.88292" lon="5.76277">
        <ele>1368.726</ele>
        <time>2020-09-17T14:44:46Z</time>
      </trkpt>
      <trkpt lat="45.88208" lon="5.76258">
        <ele>1379.308</ele>
        <time>2020-09-17T14:44:54Z</time>
      </trkpt>
      <trkpt lat="45.88204" lon="5.76221">
        <ele>1381.543</ele>
        <time>2020-09-17T14:44:57Z</time>
      </trkpt>
      <trkpt lat="45.88232" lon="5.76188">
        <ele>1383.924</ele>
        <time>2020-09-17T14:45:01Z</time>
      </trkpt>
      <trkpt lat="45.88464" lon="5.76068">
        <ele>1407.127</ele>
        <time>2020-09-17T14:45:15Z</time>
      </trkpt>
      <trkpt lat="45.8857" lon="5.76053">
        <ele>1416.022</ele>
        <time>2020-09-17T14:45:21Z</time>
      </trkpt>
      <trkpt lat="45.88864" lon="5.76106">
        <ele>1423.614</ele>
        <time>2020-09-17T14:45:33Z</time>
      </trkpt>
      <trkpt lat="45.89205" lon="5.76126">
        <ele>1442.98</ele>
        <time>2020-09-17T14:45:46Z</time>
      </trkpt>
      <trkpt lat="45.89477" lon="5.76184">
        <ele>1460.981</ele>
        <time>2020-09-17T14:45:58Z</time>
      </trkpt>
      <trkpt lat="45.89633" lon="5.76199">
        <ele>1465.92</ele>
        <time>2020-09-17T14:46:04Z</time>
      </trkpt>
      <trkpt lat="45.8983" lon="5.76282">
        <ele>1481.469</ele>
        <time>2020-09-17T14:46:12Z</time>
      </trkpt>
      <trkpt lat="45.89969" lon="5.76361">
        <ele>1494.304</ele>
        <time>2020-09-17T14:46:20Z</time>
      </trkpt>
      <trkpt lat="45.90074" lon="5.7632">
        <ele>1503.224</ele>
        <time>2020-09-17T14:46:26Z</time>
      </trkpt>
      <trkpt lat="45.90345" lon="5.76274">
        <ele>1536.408</ele>
        <time>2020-09-17T14:46:43Z</time>
      </trkpt>
      <trkpt lat="45.90369" lon="5.76228">
        <ele>1543.671</ele>
        <time>2020-09-17T14:46:52Z</time>
      </trkpt>
      <trkpt lat="45.90345" lon="5.7616">
        <ele>1542.332</ele>
        <time>2020-09-17T15:23:27Z</time>
      </trkpt>
      <trkpt lat="45.90352" lon="5.76051">
        <ele>1537.375</ele>
        <time>2020-09-17T15:23:33Z</time>
      </trkpt>
      <trkpt lat="45.90381" lon="5.76029">
        <ele>1533.22</ele>
        <time>2020-09-17T15:23:36Z</time>
      </trkpt>
      <trkpt lat="45.9074" lon="5.75973">
        <ele>1492.042</ele>
        <time>2020-09-17T15:23:53Z</time>
      </trkpt>
      <trkpt lat="45.90983" lon="5.76023">
        <ele>1459.588</ele>
        <time>2020-09-17T15:24:09Z</time>
      </trkpt>
      <trkpt lat="45.90981" lon="5.75996">
        <ele>1457.699</ele>
        <time>2020-09-17T15:24:12Z</time>
      </trkpt>
      <trkpt lat="45.90936" lon="5.75961">
        <ele>1455.338</ele>
        <time>2020-09-17T15:24:16Z</time>
      </trkpt>
      <trkpt lat="45.90833" lon="5.75781">
        <ele>1438.322</ele>
        <time>2020-09-17T15:24:25Z</time>
      </trkpt>
      <trkpt lat="45.90803" lon="5.75751">
        <ele>1435.662</ele>
        <time>2020-09-17T15:24:27Z</time>
      </trkpt>
      <trkpt lat="45.90467" lon="5.75629">
        <ele>1409.708</ele>
        <time>2020-09-17T15:24:40Z</time>
      </trkpt>
      <trkpt lat="45.90304" lon="5.7561">
        <ele>1390.108</ele>
        <time>2020-09-17T15:24:48Z</time>
      </trkpt>
      <trkpt lat="45.90089" lon="5.75668">
        <ele>1368.577</ele>
        <time>2020-09-17T15:24:59Z</time>
      </trkpt>
      <trkpt lat="45.89872" lon="5.75699">
        <ele>1340.538</ele>
        <time>2020-09-17T15:25:11Z</time>
      </trkpt>
      <trkpt lat="45.89883" lon="5.75674">
        <ele>1333.761</ele>
        <time>2020-09-17T15:25:15Z</time>
      </trkpt>
      <trkpt lat="45.90044" lon="5.75565">
        <ele>1315.456</ele>
        <time>2020-09-17T15:25:25Z</time>
      </trkpt>
      <trkpt lat="45.90066" lon="5.75522">
        <ele>1312.658</ele>
        <time>2020-09-17T15:25:28Z</time>
      </trkpt>
      <trkpt lat="45.90056" lon="5.75471">
        <ele>1310.194</ele>
        <time>2020-09-17T15:25:31Z</time>
      </trkpt>
      <trkpt lat="45.89843" lon="5.75297">
        <ele>1296.345</ele>
        <time>2020-09-17T15:25:41Z</time>
      </trkpt>
      <trkpt lat="45.89735" lon="5.7523">
        <ele>1290.614</ele>
        <time>2020-09-17T15:25:46Z</time>
      </trkpt>
      <trkpt lat="45.89703" lon="5.75186">
        <ele>1288.091</ele>
        <time>2020-09-17T15:25:50Z</time>
      </trkpt>
      <trkpt lat="45.89867" lon="5.74926">
        <ele>1266.481</ele>
        <time>2020-09-17T15:26:02Z</time>
      </trkpt>
      <trkpt lat="45.90006" lon="5.74842">
        <ele>1260.319</ele>
        <time>2020-09-17T15:26:10Z</time>
      </trkpt>
      <trkpt lat="45.90139" lon="5.74706">
        <ele>1248.708</ele>
        <time>2020-09-17T15:26:19Z</time>
      </trkpt>
      <trkpt lat="45.90296" lon="5.74716">
        <ele>1241.154</ele>
        <time>2020-09-17T15:26:28Z</time>
      </trkpt>
      <trkpt lat="45.90491" lon="5.74675">
        <ele>1230.055</ele>
        <time>2020-09-17T15:26:40Z</time>
      </trkpt>
      <trkpt lat="45.90553" lon="5.74533">
        <ele>1222.878</ele>
        <time>2020-09-17T15:26:50Z</time>
      </trkpt>
      <trkpt lat="45.90571" lon="5.7454">
        <ele>1223.773</ele>
        <time>2020-09-17T15:26:53Z</time>
      </trkpt>
      <trkpt lat="45.90587" lon="5.74623">
        <ele>1222.945</ele>
        <time>2020-09-17T15:26:58Z</time>
      </trkpt>
      <trkpt lat="45.90643" lon="5.7473">
        <ele>1215.241</ele>
        <time>2020-09-17T15:27:03Z</time>
      </trkpt>
      <trkpt lat="45.9074" lon="5.7486">
        <ele>1198.952</ele>
        <time>2020-09-17T15:27:10Z</time>
      </trkpt>
      <trkpt lat="45.90862" lon="5.74945">
        <ele>1185.651</ele>
        <time>2020-09-17T15:27:18Z</time>
      </trkpt>
      <trkpt lat="45.90933" lon="5.75078">
        <ele>1169.874</ele>
        <time>2020-09-17T15:27:32Z</time>
      </trkpt>
      <trkpt lat="45.91247" lon="5.74957">
        <ele>1132.156</ele>
        <time>2020-09-17T15:27:54Z</time>
      </trkpt>
      <trkpt lat="45.91304" lon="5.74994">
        <ele>1122.621</ele>
        <time>2020-09-17T15:27:58Z</time>
      </trkpt>
      <trkpt lat="45.9137" lon="5.75101">
        <ele>1110.808</ele>
        <time>2020-09-17T15:28:04Z</time>
      </trkpt>
      <trkpt lat="45.91455" lon="5.75191">
        <ele>1101.962</ele>
        <time>2020-09-17T15:28:10Z</time>
      </trkpt>
      <trkpt lat="45.91477" lon="5.75196">
        <ele>1100.083</ele>
        <time>2020-09-17T15:28:12Z</time>
      </trkpt>
      <trkpt lat="45.91623" lon="5.75074">
        <ele>1082.516</ele>
        <time>2020-09-17T15:28:21Z</time>
      </trkpt>
      <trkpt lat="45.91676" lon="5.75087">
        <ele>1070.891</ele>
        <time>2020-09-17T15:28:26Z</time>
      </trkpt>
      <trkpt lat="45.91728" lon="5.75147">
        <ele>1065.063</ele>
        <time>2020-09-17T15:28:29Z</time>
      </trkpt>
      <trkpt lat="45.91821" lon="5.75175">
        <ele>1056.759</ele>
        <time>2020-09-17T15:28:34Z</time>
      </trkpt>
      <trkpt lat="45.91952" lon="5.75278">
        <ele>1044.17</ele>
        <time>2020-09-17T15:28:43Z</time>
      </trkpt>
      <trkpt lat="45.92024" lon="5.75254">
        <ele>1039.049</ele>
        <time>2020-09-17T15:28:47Z</time>
      </trkpt>
      <trkpt lat="45.92122" lon="5.75177">
        <ele>1029.718</ele>
        <time>2020-09-17T15:28:53Z</time>
      </trkpt>
      <trkpt lat="45.92271" lon="5.7518">
        <ele>1023.398</ele>
        <time>2020-09-17T15:29:00Z</time>
      </trkpt>
      <trkpt lat="45.9241" lon="5.75305">
        <ele>1018.917</ele>
        <time>2020-09-17T15:29:10Z</time>
      </trkpt>
      <trkpt lat="45.92518" lon="5.75345">
        <ele>1017.608</ele>
        <time>2020-09-17T15:29:17Z</time>
      </trkpt>
      <trkpt lat="45.92604" lon="5.75419">
        <ele>1018.156</ele>
        <time>2020-09-17T15:29:27Z</time>
      </trkpt>
      <trkpt lat="45.92647" lon="5.75421">
        <ele>1025.127</ele>
        <time>2020-09-17T15:29:35Z</time>
      </trkpt>
      <trkpt lat="45.9277" lon="5.7551">
        <ele>1026.86</ele>
        <time>2020-09-17T15:29:45Z</time>
      </trkpt>
      <trkpt lat="45.92835" lon="5.75591">
        <ele>1023.685</ele>
        <time>2020-09-17T15:29:53Z</time>
      </trkpt>
      <trkpt lat="45.92867" lon="5.75527">
        <ele>1019.737</ele>
        <time>2020-09-17T15:29:58Z</time>
      </trkpt>
      <trkpt lat="45.92839" lon="5.75448">
        <ele>1014.933</ele>
        <time>2020-09-17T15:30:03Z</time>
      </trkpt>
      <trkpt lat="45.92826" lon="5.75356">
        <ele>1010.574</ele>
        <time>2020-09-17T15:30:07Z</time>
      </trkpt>
      <trkpt lat="45.92764" lon="5.75222">
        <ele>1006.873</ele>
        <time>2020-09-17T15:30:14Z</time>
      </trkpt>
      <trkpt lat="45.92691" lon="5.75129">
        <ele>1007.624</ele>
        <time>2020-09-17T15:30:19Z</time>
      </trkpt>
      <trkpt lat="45.92559" lon="5.75009">
        <ele>1008.404</ele>
        <time>2020-09-17T15:30:26Z</time>
      </trkpt>
      <trkpt lat="45.92466" lon="5.74968">
        <ele>1007.314</ele>
        <time>2020-09-17T15:30:31Z</time>
      </trkpt>
      <trkpt lat="45.9241" lon="5.74867">
        <ele>1003.708</ele>
        <time>2020-09-17T15:30:37Z</time>
      </trkpt>
      <trkpt lat="45.9235" lon="5.74818">
        <ele>1001.967</ele>
        <time>2020-09-17T15:30:40Z</time>
      </trkpt>
      <trkpt lat="45.92237" lon="5.74778">
        <ele>1001.678</ele>
        <time>2020-09-17T15:30:45Z</time>
      </trkpt>
      <trkpt lat="45.92074" lon="5.74763">
        <ele>1001.471</ele>
        <time>2020-09-17T15:30:53Z</time>
      </trkpt>
      <trkpt lat="45.91958" lon="5.74663">
        <ele>999.766</ele>
        <time>2020-09-17T15:31:02Z</time>
      </trkpt>
      <trkpt lat="45.91966" lon="5.74541">
        <ele>993.598</ele>
        <time>2020-09-17T15:31:11Z</time>
      </trkpt>
      <trkpt lat="45.92061" lon="5.74411">
        <ele>985.994</ele>
        <time>2020-09-17T15:31:41Z</time>
      </trkpt>
      <trkpt lat="45.92185" lon="5.74301">
        <ele>970.555</ele>
        <time>2020-09-17T15:31:49Z</time>
      </trkpt>
      <trkpt lat="45.92296" lon="5.74253">
        <ele>955.584</ele>
        <time>2020-09-17T15:31:56Z</time>
      </trkpt>
      <trkpt lat="45.92447" lon="5.74135">
        <ele>941.547</ele>
        <time>2020-09-17T15:32:09Z</time>
      </trkpt>
      <trkpt lat="45.92554" lon="5.74111">
        <ele>931.829</ele>
        <time>2020-09-17T15:32:19Z</time>
      </trkpt>
      <trkpt lat="45.92716" lon="5.73988">
        <ele>919.621</ele>
        <time>2020-09-17T15:32:28Z</time>
      </trkpt>
      <trkpt lat="45.92988" lon="5.73957">
        <ele>897.008</ele>
        <time>2020-09-17T15:32:42Z</time>
      </trkpt>
      <trkpt lat="45.93111" lon="5.73928">
        <ele>874.339</ele>
        <time>2020-09-17T15:32:53Z</time>
      </trkpt>
      <trkpt lat="45.93177" lon="5.73959">
        <ele>863.02</ele>
        <time>2020-09-17T15:33:05Z</time>
      </trkpt>
      <trkpt lat="45.93534" lon="5.73948">
        <ele>877.423</ele>
        <time>2020-09-17T15:33:43Z</time>
      </trkpt>
      <trkpt lat="45.93628" lon="5.73963">
        <ele>886.078</ele>
        <time>2020-09-17T15:33:52Z</time>
      </trkpt>
      <trkpt lat="45.93715" lon="5.73941">
        <ele>896.05</ele>
        <time>2020-09-17T15:34:05Z</time>
      </trkpt>
      <trkpt lat="45.9389" lon="5.73957">
        <ele>916.346</ele>
        <time>2020-09-17T15:34:37Z</time>
      </trkpt>
      <trkpt lat="45.93957" lon="5.73908">
        <ele>921.477</ele>
        <time>2020-09-17T15:34:45Z</time>
      </trkpt>
      <trkpt lat="45.94063" lon="5.73892">
        <ele>928.526</ele>
        <time>2020-09-17T15:34:56Z</time>
      </trkpt>
      <trkpt lat="45.94232" lon="5.73823">
        <ele>932.933</ele>
        <time>2020-09-17T15:35:13Z</time>
      </trkpt>
      <trkpt lat="45.94327" lon="5.73742">
        <ele>930.323</ele>
        <time>2020-09-17T15:35:24Z</time>
      </trkpt>
      <trkpt lat="45.94405" lon="5.73703">
        <ele>926.015</ele>
        <time>2020-09-17T15:35:33Z</time>
      </trkpt>
      <trkpt lat="45.94439" lon="5.73719">
        <ele>924.208</ele>
        <time>2020-09-17T15:35:41Z</time>
      </trkpt>
      <trkpt lat="45.94514" lon="5.73701">
        <ele>923.288</ele>
        <time>2020-09-17T15:35:48Z</time>
      </trkpt>
      <trkpt lat="45.9456" lon="5.73721">
        <ele>923.189</ele>
        <time>2020-09-17T15:35:52Z</time>
      </trkpt>
      <trkpt lat="45.9471" lon="5.73675">
        <ele>936.852</ele>
        <time>2020-09-17T15:36:01Z</time>
      </trkpt>
      <trkpt lat="45.94783" lon="5.73719">
        <ele>945.657</ele>
        <time>2020-09-17T15:36:06Z</time>
      </trkpt>
      <trkpt lat="45.94961" lon="5.73713">
        <ele>965.689</ele>
        <time>2020-09-17T15:36:16Z</time>
      </trkpt>
      <trkpt lat="45.95015" lon="5.73746">
        <ele>972.745</ele>
        <time>2020-09-17T15:36:20Z</time>
      </trkpt>
      <trkpt lat="45.95073" lon="5.73731">
        <ele>980.016</ele>
        <time>2020-09-17T15:36:25Z</time>
      </trkpt>
      <trkpt lat="45.95122" lon="5.73751">
        <ele>985.895</ele>
        <time>2020-09-17T15:36:28Z</time>
      </trkpt>
      <trkpt lat="45.9536" lon="5.73753">
        <ele>1020.752</ele>
        <time>2020-09-17T15:36:43Z</time>
      </trkpt>
      <trkpt lat="45.95395" lon="5.73769">
        <ele>1026.153</ele>
        <time>2020-09-17T15:36:46Z</time>
      </trkpt>
      <trkpt lat="45.95548" lon="5.73911">
        <ele>1044.708</ele>
        <time>2020-09-17T15:36:56Z</time>
      </trkpt>
      <trkpt lat="45.95603" lon="5.73942">
        <ele>1051.008</ele>
        <time>2020-09-17T15:37:00Z</time>
      </trkpt>
      <trkpt lat="45.95635" lon="5.7402">
        <ele>1056.04</ele>
        <time>2020-09-17T15:37:04Z</time>
      </trkpt>
      <trkpt lat="45.95667" lon="5.74053">
        <ele>1058.041</ele>
        <time>2020-09-17T15:37:06Z</time>
      </trkpt>
      <trkpt lat="45.95756" lon="5.7405">
        <ele>1064.964</ele>
        <time>2020-09-17T15:37:13Z</time>
      </trkpt>
      <trkpt lat="45.95855" lon="5.73986">
        <ele>1084.949</ele>
        <time>2020-09-17T15:37:22Z</time>
      </trkpt>
      <trkpt lat="45.9587" lon="5.74006">
        <ele>1092.571</ele>
        <time>2020-09-17T15:37:26Z</time>
      </trkpt>
      <trkpt lat="45.95863" lon="5.74047">
        <ele>1102.777</ele>
        <time>2020-09-17T15:38:19Z</time>
      </trkpt>
      <trkpt lat="45.95817" lon="5.7407">
        <ele>1110.738</ele>
        <time>2020-09-17T15:38:22Z</time>
      </trkpt>
      <trkpt lat="45.95768" lon="5.7413">
        <ele>1123.617</ele>
        <time>2020-09-17T15:38:29Z</time>
      </trkpt>
      <trkpt lat="45.95605" lon="5.74177">
        <ele>1130.084</ele>
        <time>2020-09-17T15:38:41Z</time>
      </trkpt>
      <trkpt lat="45.95415" lon="5.7413">
        <ele>1145.107</ele>
        <time>2020-09-17T15:38:50Z</time>
      </trkpt>
      <trkpt lat="45.95333" lon="5.74095">
        <ele>1155.717</ele>
        <time>2020-09-17T15:38:56Z</time>
      </trkpt>
      <trkpt lat="45.95282" lon="5.7413">
        <ele>1160.508</ele>
        <time>2020-09-17T15:39:00Z</time>
      </trkpt>
      <trkpt lat="45.95182" lon="5.74156">
        <ele>1168.473</ele>
        <time>2020-09-17T15:39:05Z</time>
      </trkpt>
      <trkpt lat="45.95136" lon="5.74189">
        <ele>1173.024</ele>
        <time>2020-09-17T15:39:08Z</time>
      </trkpt>
      <trkpt lat="45.95081" lon="5.74195">
        <ele>1178.497</ele>
        <time>2020-09-17T15:39:13Z</time>
      </trkpt>
      <trkpt lat="45.95016" lon="5.74235">
        <ele>1183.092</ele>
        <time>2020-09-17T15:39:17Z</time>
      </trkpt>
      <trkpt lat="45.94911" lon="5.7424">
        <ele>1193.954</ele>
        <time>2020-09-17T15:39:23Z</time>
      </trkpt>
      <trkpt lat="45.94759" lon="5.74329">
        <ele>1207.58</ele>
        <time>2020-09-17T15:39:32Z</time>
      </trkpt>
      <trkpt lat="45.94398" lon="5.74497">
        <ele>1249.661</ele>
        <time>2020-09-17T15:39:53Z</time>
      </trkpt>
      <trkpt lat="45.94395" lon="5.74511">
        <ele>1253.49</ele>
        <time>2020-09-17T15:39:55Z</time>
      </trkpt>
      <trkpt lat="45.94411" lon="5.74527">
        <ele>1258.425</ele>
        <time>2020-09-17T15:39:58Z</time>
      </trkpt>
      <trkpt lat="45.94471" lon="5.74482">
        <ele>1261.626</ele>
        <time>2020-09-17T15:40:03Z</time>
      </trkpt>
      <trkpt lat="45.9455" lon="5.74464">
        <ele>1262.108</ele>
        <time>2020-09-17T15:40:07Z</time>
      </trkpt>
      <trkpt lat="45.94634" lon="5.74481">
        <ele>1265.008</ele>
        <time>2020-09-17T15:40:12Z</time>
      </trkpt>
      <trkpt lat="45.94739" lon="5.74476">
        <ele>1269.067</ele>
        <time>2020-09-17T15:40:17Z</time>
      </trkpt>
      <trkpt lat="45.95265" lon="5.74686">
        <ele>1313.018</ele>
        <time>2020-09-17T15:40:45Z</time>
      </trkpt>
      <trkpt lat="45.95272" lon="5.7472">
        <ele>1318.581</ele>
        <time>2020-09-17T15:40:48Z</time>
      </trkpt>
      <trkpt lat="45.95236" lon="5.74773">
        <ele>1327.926</ele>
        <time>2020-09-17T15:40:54Z</time>
      </trkpt>
      <trkpt lat="45.95225" lon="5.74817">
        <ele>1336.268</ele>
        <time>2020-09-17T15:40:59Z</time>
      </trkpt>
      <trkpt lat="45.95256" lon="5.74936">
        <ele>1346.524</ele>
        <time>2020-09-17T15:41:08Z</time>
      </trkpt>
      <trkpt lat="45.95255" lon="5.74984">
        <ele>1348.065</ele>
        <time>2020-09-17T15:41:12Z</time>
      </trkpt>
      <trkpt lat="45.95142" lon="5.75178">
        <ele>1342.924</ele>
        <time>2020-09-17T15:41:28Z</time>
      </trkpt>
      <trkpt lat="45.95092" lon="5.75352">
        <ele>1331.467</ele>
        <time>2020-09-17T15:41:38Z</time>
      </trkpt>
      <trkpt lat="45.95114" lon="5.75374">
        <ele>1328.881</ele>
        <time>2020-09-17T15:41:41Z</time>
      </trkpt>
      <trkpt lat="45.95253" lon="5.75418">
        <ele>1313.919</ele>
        <time>2020-09-17T15:42:01Z</time>
      </trkpt>
      <trkpt lat="45.95295" lon="5.75356">
        <ele>1307.808</ele>
        <time>2020-09-17T15:42:09Z</time>
      </trkpt>
      <trkpt lat="45.95411" lon="5.75292">
        <ele>1304.981</ele>
        <time>2020-09-17T15:42:20Z</time>
      </trkpt>
      <trkpt lat="45.95417" lon="5.75216">
        <ele>1306.162</ele>
        <time>2020-09-17T15:42:32Z</time>
      </trkpt>
      <trkpt lat="45.95466" lon="5.75185">
        <ele>1303.175</ele>
        <time>2020-09-17T15:42:50Z</time>
      </trkpt>
      <trkpt lat="45.95438" lon="5.75177">
        <ele>1301.61</ele>
        <time>2020-09-17T15:43:05Z</time>
      </trkpt>
      <trkpt lat="45.95396" lon="5.75219">
        <ele>1304.692</ele>
        <time>2020-09-17T15:43:14Z</time>
      </trkpt>
      <trkpt lat="45.95209" lon="5.75301">
        <ele>1308.248</ele>
        <time>2020-09-17T15:43:31Z</time>
      </trkpt>
      <trkpt lat="45.9518" lon="5.75332">
        <ele>1309.269</ele>
        <time>2020-09-17T15:43:36Z</time>
      </trkpt>
      <trkpt lat="45.95163" lon="5.75378">
        <ele>1309.348</ele>
        <time>2020-09-17T15:43:45Z</time>
      </trkpt>
      <trkpt lat="45.95241" lon="5.75426">
        <ele>1305.557</ele>
        <time>2020-09-17T15:43:52Z</time>
      </trkpt>
      <trkpt lat="45.95249" lon="5.7546">
        <ele>1302.6</ele>
        <time>2020-09-17T15:43:56Z</time>
      </trkpt>
      <trkpt lat="45.95202" lon="5.75539">
        <ele>1299.22</ele>
        <time>2020-09-17T15:44:01Z</time>
      </trkpt>
      <trkpt lat="45.95115" lon="5.75633">
        <ele>1292.708</ele>
        <time>2020-09-17T15:44:09Z</time>
      </trkpt>
      <trkpt lat="45.95108" lon="5.75676">
        <ele>1289.94</ele>
        <time>2020-09-17T15:44:12Z</time>
      </trkpt>
      <trkpt lat="45.95122" lon="5.75699">
        <ele>1288.671</ele>
        <time>2020-09-17T15:44:15Z</time>
      </trkpt>
      <trkpt lat="45.95179" lon="5.75722">
        <ele>1287.114</ele>
        <time>2020-09-17T15:44:22Z</time>
      </trkpt>
      <trkpt lat="45.95181" lon="5.75753">
        <ele>1286.859</ele>
        <time>2020-09-17T15:44:28Z</time>
      </trkpt>
      <trkpt lat="45.95014" lon="5.75836">
        <ele>1294.211</ele>
        <time>2020-09-17T15:45:00Z</time>
      </trkpt>
      <trkpt lat="45.95058" lon="5.7577">
        <ele>1291.297</ele>
        <time>2020-09-17T15:45:16Z</time>
      </trkpt>
      <trkpt lat="45.95182" lon="5.75721">
        <ele>1284.718</ele>
        <time>2020-09-17T15:45:38Z</time>
      </trkpt>
      <trkpt lat="45.95334" lon="5.75775">
        <ele>1284.037</ele>
        <time>2020-09-17T15:45:49Z</time>
      </trkpt>
      <trkpt lat="45.95354" lon="5.75795">
        <ele>1284.797</ele>
        <time>2020-09-17T15:45:53Z</time>
      </trkpt>
      <trkpt lat="45.95349" lon="5.7581">
        <ele>1285.623</ele>
        <time>2020-09-17T15:45:55Z</time>
      </trkpt>
      <trkpt lat="45.95005" lon="5.75951">
        <ele>1317.225</ele>
        <time>2020-09-17T15:46:12Z</time>
      </trkpt>
      <trkpt lat="45.94771" lon="5.76102">
        <ele>1356.008</ele>
        <time>2020-09-17T15:46:28Z</time>
      </trkpt>
      <trkpt lat="45.94779" lon="5.76131">
        <ele>1364.054</ele>
        <time>2020-09-17T15:46:32Z</time>
      </trkpt>
      <trkpt lat="45.95021" lon="5.76129">
        <ele>1367.695</ele>
        <time>2020-09-17T15:46:44Z</time>
      </trkpt>
      <trkpt lat="45.9509" lon="5.7615">
        <ele>1366.988</ele>
        <time>2020-09-17T15:46:48Z</time>
      </trkpt>
      <trkpt lat="45.95174" lon="5.76241">
        <ele>1365.733</ele>
        <time>2020-09-17T15:46:54Z</time>
      </trkpt>
      <trkpt lat="45.95212" lon="5.76336">
        <ele>1363.045</ele>
        <time>2020-09-17T15:46:58Z</time>
      </trkpt>
      <trkpt lat="45.95223" lon="5.76501">
        <ele>1361.821</ele>
        <time>2020-09-17T15:47:04Z</time>
      </trkpt>
      <trkpt lat="45.95143" lon="5.76745">
        <ele>1366.682</ele>
        <time>2020-09-17T15:47:16Z</time>
      </trkpt>
      <trkpt lat="45.94986" lon="5.76865">
        <ele>1353.571</ele>
        <time>2020-09-17T15:47:41Z</time>
      </trkpt>
      <trkpt lat="45.94996" lon="5.76891">
        <ele>1350.762</ele>
        <time>2020-09-17T15:47:44Z</time>
      </trkpt>
      <trkpt lat="45.95087" lon="5.76903">
        <ele>1341.683</ele>
        <time>2020-09-17T15:47:52Z</time>
      </trkpt>
      <trkpt lat="45.95202" lon="5.7703">
        <ele>1331.811</ele>
        <time>2020-09-17T15:48:01Z</time>
      </trkpt>
      <trkpt lat="45.95245" lon="5.77112">
        <ele>1325.608</ele>
        <time>2020-09-17T15:48:07Z</time>
      </trkpt>
      <trkpt lat="45.95309" lon="5.77141">
        <ele>1319.681</ele>
        <time>2020-09-17T15:48:14Z</time>
      </trkpt>
      <trkpt lat="45.953" lon="5.77174">
        <ele>1316.982</ele>
        <time>2020-09-17T15:48:18Z</time>
      </trkpt>
      <trkpt lat="45.95169" lon="5.77206">
        <ele>1306.775</ele>
        <time>2020-09-17T15:48:40Z</time>
      </trkpt>
      <trkpt lat="45.9515" lon="5.77244">
        <ele>1304.01</ele>
        <time>2020-09-17T15:48:45Z</time>
      </trkpt>
      <trkpt lat="45.95147" lon="5.77343">
        <ele>1301.392</ele>
        <time>2020-09-17T15:48:54Z</time>
      </trkpt>
      <trkpt lat="45.95188" lon="5.77439">
        <ele>1295.428</ele>
        <time>2020-09-17T15:49:32Z</time>
      </trkpt>
      <trkpt lat="45.95174" lon="5.77554">
        <ele>1293.249</ele>
        <time>2020-09-17T15:49:45Z</time>
      </trkpt>
      <trkpt lat="45.95207" lon="5.7766">
        <ele>1284.918</ele>
        <time>2020-09-17T15:50:04Z</time>
      </trkpt>
      <trkpt lat="45.95418" lon="5.77546">
        <ele>1284.256</ele>
        <time>2020-09-17T15:51:23Z</time>
      </trkpt>
      <trkpt lat="45.9549" lon="5.7756">
        <ele>1283.759</ele>
        <time>2020-09-17T15:51:30Z</time>
      </trkpt>
      <trkpt lat="45.95565" lon="5.77515">
        <ele>1285.714</ele>
        <time>2020-09-17T15:51:38Z</time>
      </trkpt>
      <trkpt lat="45.95703" lon="5.77483">
        <ele>1288.108</ele>
        <time>2020-09-17T15:51:50Z</time>
      </trkpt>
      <trkpt lat="45.95718" lon="5.77427">
        <ele>1289.12</ele>
        <time>2020-09-17T15:51:58Z</time>
      </trkpt>
      <trkpt lat="45.95687" lon="5.77312">
        <ele>1285.951</ele>
        <time>2020-09-17T15:52:07Z</time>
      </trkpt>
      <trkpt lat="45.95695" lon="5.77281">
        <ele>1284.854</ele>
        <time>2020-09-17T15:52:11Z</time>
      </trkpt>
      <trkpt lat="45.95838" lon="5.77148">
        <ele>1281.159</ele>
        <time>2020-09-17T15:52:25Z</time>
      </trkpt>
      <trkpt lat="45.95883" lon="5.77133">
        <ele>1281.851</ele>
        <time>2020-09-17T15:52:31Z</time>
      </trkpt>
      <trkpt lat="45.95917" lon="5.771">
        <ele>1283.937</ele>
        <time>2020-09-17T15:52:35Z</time>
      </trkpt>
      <trkpt lat="45.95981" lon="5.76936">
        <ele>1287.328</ele>
        <time>2020-09-17T15:52:48Z</time>
      </trkpt>
      <trkpt lat="45.96025" lon="5.76875">
        <ele>1286.397</ele>
        <time>2020-09-17T15:52:56Z</time>
      </trkpt>
      <trkpt lat="45.96074" lon="5.76847">
        <ele>1283.479</ele>
        <time>2020-09-17T15:53:02Z</time>
      </trkpt>
      <trkpt lat="45.96124" lon="5.7676">
        <ele>1284.305</ele>
        <time>2020-09-17T15:53:11Z</time>
      </trkpt>
      <trkpt lat="45.96256" lon="5.76805">
        <ele>1275.725</ele>
        <time>2020-09-17T15:53:24Z</time>
      </trkpt>
      <trkpt lat="45.96333" lon="5.76881">
        <ele>1268.308</ele>
        <time>2020-09-17T15:53:35Z</time>
      </trkpt>
      <trkpt lat="45.96424" lon="5.76901">
        <ele>1259.252</ele>
        <time>2020-09-17T15:53:46Z</time>
      </trkpt>
      <trkpt lat="45.96461" lon="5.76928">
        <ele>1256.273</ele>
        <time>2020-09-17T15:53:51Z</time>
      </trkpt>
      <trkpt lat="45.96523" lon="5.76919">
        <ele>1252.196</ele>
        <time>2020-09-17T15:53:58Z</time>
      </trkpt>
      <trkpt lat="45.96562" lon="5.7693">
        <ele>1249.241</ele>
        <time>2020-09-17T15:54:03Z</time>
      </trkpt>
      <trkpt lat="45.96573" lon="5.76967">
        <ele>1247.593</ele>
        <time>2020-09-17T15:54:08Z</time>
      </trkpt>
      <trkpt lat="45.96551" lon="5.77048">
        <ele>1243.829</ele>
        <time>2020-09-17T15:54:18Z</time>
      </trkpt>
      <trkpt lat="45.96587" lon="5.77068">
        <ele>1239.18</ele>
        <time>2020-09-17T15:54:23Z</time>
      </trkpt>
      <trkpt lat="45.96692" lon="5.77221">
        <ele>1223.649</ele>
        <time>2020-09-17T15:54:39Z</time>
      </trkpt>
      <trkpt lat="45.96715" lon="5.77305">
        <ele>1219.091</ele>
        <time>2020-09-17T15:55:11Z</time>
      </trkpt>
      <trkpt lat="45.96747" lon="5.77253">
        <ele>1214.181</ele>
        <time>2020-09-17T15:55:33Z</time>
      </trkpt>
      <trkpt lat="45.96807" lon="5.77232">
        <ele>1204.319</ele>
        <time>2020-09-17T15:55:57Z</time>
      </trkpt>
      <trkpt lat="45.96862" lon="5.77315">
        <ele>1183.208</ele>
        <time>2020-09-17T15:56:27Z</time>
      </trkpt>
      <trkpt lat="45.96914" lon="5.77329">
        <ele>1162.684</ele>
        <time>2020-09-17T15:56:41Z</time>
      </trkpt>
      <trkpt lat="45.96961" lon="5.77271">
        <ele>1156.655</ele>
        <time>2020-09-17T15:57:03Z</time>
      </trkpt>
      <trkpt lat="45.96941" lon="5.77132">
        <ele>1141.568</ele>
        <time>2020-09-17T15:57:32Z</time>
      </trkpt>
      <trkpt lat="45.96905" lon="5.77018">
        <ele>1142.753</ele>
        <time>2020-09-17T15:57:51Z</time>
      </trkpt>
      <trkpt lat="45.96782" lon="5.76825">
        <ele>1128.795</ele>
        <time>2020-09-17T15:58:25Z</time>
      </trkpt>
      <trkpt lat="45.96797" lon="5.76807">
        <ele>1127.451</ele>
        <time>2020-09-17T15:58:30Z</time>
      </trkpt>
      <trkpt lat="45.96822" lon="5.76808">
        <ele>1125.282</ele>
        <time>2020-09-17T15:58:34Z</time>
      </trkpt>
      <trkpt lat="45.9696" lon="5.76912">
        <ele>1134.181</ele>
        <time>2020-09-17T15:59:02Z</time>
      </trkpt>
      <trkpt lat="45.97007" lon="5.7688">
        <ele>1136.152</ele>
        <time>2020-09-17T15:59:09Z</time>
      </trkpt>
      <trkpt lat="45.97057" lon="5.76907">
        <ele>1136.153</ele>
        <time>2020-09-17T15:59:15Z</time>
      </trkpt>
      <trkpt lat="45.97117" lon="5.76981">
        <ele>1137.208</ele>
        <time>2020-09-17T15:59:22Z</time>
      </trkpt>
      <trkpt lat="45.97155" lon="5.77071">
        <ele>1136.108</ele>
        <time>2020-09-17T15:59:28Z</time>
      </trkpt>
      <trkpt lat="45.97297" lon="5.77223">
        <ele>1130.93</ele>
        <time>2020-09-17T15:59:45Z</time>
      </trkpt>
      <trkpt lat="45.97332" lon="5.77279">
        <ele>1130.741</ele>
        <time>2020-09-17T15:59:50Z</time>
      </trkpt>
      <trkpt lat="45.97388" lon="5.77311">
        <ele>1128.614</ele>
        <time>2020-09-17T15:59:57Z</time>
      </trkpt>
      <trkpt lat="45.97406" lon="5.77308">
        <ele>1129.099</ele>
        <time>2020-09-17T16:00:00Z</time>
      </trkpt>
      <trkpt lat="45.97501" lon="5.77207">
        <ele>1130.591</ele>
        <time>2020-09-17T16:00:22Z</time>
      </trkpt>
      <trkpt lat="45.9754" lon="5.77274">
        <ele>1128.547</ele>
        <time>2020-09-17T16:00:31Z</time>
      </trkpt>
      <trkpt lat="45.97647" lon="5.7733">
        <ele>1118.828</ele>
        <time>2020-09-17T16:00:45Z</time>
      </trkpt>
      <trkpt lat="45.97829" lon="5.7728">
        <ele>1105.787</ele>
        <time>2020-09-17T16:01:09Z</time>
      </trkpt>
      <trkpt lat="45.97889" lon="5.77296">
        <ele>1096.286</ele>
        <time>2020-09-17T16:01:17Z</time>
      </trkpt>
      <trkpt lat="45.97916" lon="5.77329">
        <ele>1094.06</ele>
        <time>2020-09-17T16:01:24Z</time>
      </trkpt>
      <trkpt lat="45.98003" lon="5.77315">
        <ele>1084.826</ele>
        <time>2020-09-17T16:01:38Z</time>
      </trkpt>
      <trkpt lat="45.98048" lon="5.77369">
        <ele>1079.608</ele>
        <time>2020-09-17T16:01:47Z</time>
      </trkpt>
      <trkpt lat="45.98112" lon="5.77383">
        <ele>1072.783</ele>
        <time>2020-09-17T16:01:55Z</time>
      </trkpt>
      <trkpt lat="45.98222" lon="5.77338">
        <ele>1060.944</ele>
        <time>2020-09-17T16:02:10Z</time>
      </trkpt>
      <trkpt lat="45.9832" lon="5.7738">
        <ele>1047.317</ele>
        <time>2020-09-17T16:02:23Z</time>
      </trkpt>
      <trkpt lat="45.98397" lon="5.77357">
        <ele>1035.242</ele>
        <time>2020-09-17T16:02:37Z</time>
      </trkpt>
      <trkpt lat="45.98382" lon="5.77475">
        <ele>1027.984</ele>
        <time>2020-09-17T16:02:50Z</time>
      </trkpt>
      <trkpt lat="45.98335" lon="5.7756">
        <ele>1019.99</ele>
        <time>2020-09-17T16:03:01Z</time>
      </trkpt>
      <trkpt lat="45.9825" lon="5.77834">
        <ele>1000.741</ele>
        <time>2020-09-17T16:03:29Z</time>
      </trkpt>
      <trkpt lat="45.98172" lon="5.77957">
        <ele>987.44</ele>
        <time>2020-09-17T16:03:46Z</time>
      </trkpt>
      <trkpt lat="45.98181" lon="5.77969">
        <ele>985.523</ele>
        <time>2020-09-17T16:03:51Z</time>
      </trkpt>
      <trkpt lat="45.98207" lon="5.77955">
        <ele>982.583</ele>
        <time>2020-09-17T16:03:56Z</time>
      </trkpt>
      <trkpt lat="45.9826" lon="5.77958">
        <ele>972.911</ele>
        <time>2020-09-17T16:04:06Z</time>
      </trkpt>
      <trkpt lat="45.98311" lon="5.77932">
        <ele>969.008</ele>
        <time>2020-09-17T16:04:14Z</time>
      </trkpt>
      <trkpt lat="45.98413" lon="5.77837">
        <ele>960.637</ele>
        <time>2020-09-17T16:04:28Z</time>
      </trkpt>
      <trkpt lat="45.98468" lon="5.77811">
        <ele>954.638</ele>
        <time>2020-09-17T16:04:35Z</time>
      </trkpt>
      <trkpt lat="45.98516" lon="5.77815">
        <ele>946.161</ele>
        <time>2020-09-17T16:04:42Z</time>
      </trkpt>
      <trkpt lat="45.98555" lon="5.77784">
        <ele>942.126</ele>
        <time>2020-09-17T16:04:48Z</time>
      </trkpt>
      <trkpt lat="45.98564" lon="5.77802">
        <ele>938.368</ele>
        <time>2020-09-17T16:04:52Z</time>
      </trkpt>
      <trkpt lat="45.98528" lon="5.77894">
        <ele>931.384</ele>
        <time>2020-09-17T16:05:04Z</time>
      </trkpt>
      <trkpt lat="45.98469" lon="5.77964">
        <ele>924.655</ele>
        <time>2020-09-17T16:05:14Z</time>
      </trkpt>
      <trkpt lat="45.98375" lon="5.78213">
        <ele>905.834</ele>
        <time>2020-09-17T16:05:43Z</time>
      </trkpt>
      <trkpt lat="45.98271" lon="5.78337">
        <ele>887.979</ele>
        <time>2020-09-17T16:06:02Z</time>
      </trkpt>
      <trkpt lat="45.98284" lon="5.7835">
        <ele>883.705</ele>
        <time>2020-09-17T16:06:06Z</time>
      </trkpt>
      <trkpt lat="45.98475" lon="5.78302">
        <ele>859.625</ele>
        <time>2020-09-17T16:06:31Z</time>
      </trkpt>
      <trkpt lat="45.98486" lon="5.78329">
        <ele>853.408</ele>
        <time>2020-09-17T16:06:37Z</time>
      </trkpt>
      <trkpt lat="45.98462" lon="5.78378">
        <ele>849.322</ele>
        <time>2020-09-17T16:06:44Z</time>
      </trkpt>
      <trkpt lat="45.98416" lon="5.78406">
        <ele>841.923</ele>
        <time>2020-09-17T16:06:50Z</time>
      </trkpt>
      <trkpt lat="45.98257" lon="5.78571">
        <ele>823.496</ele>
        <time>2020-09-17T16:07:18Z</time>
      </trkpt>
      <trkpt lat="45.98253" lon="5.786">
        <ele>817.781</ele>
        <time>2020-09-17T16:07:24Z</time>
      </trkpt>
      <trkpt lat="45.98373" lon="5.78593">
        <ele>794.593</ele>
        <time>2020-09-17T16:07:38Z</time>
      </trkpt>
      <trkpt lat="45.98484" lon="5.78549">
        <ele>786.969</ele>
        <time>2020-09-17T16:07:49Z</time>
      </trkpt>
      <trkpt lat="45.98594" lon="5.78531">
        <ele>775.38</ele>
        <time>2020-09-17T16:08:01Z</time>
      </trkpt>
      <trkpt lat="45.98642" lon="5.78485">
        <ele>771.679</ele>
        <time>2020-09-17T16:08:09Z</time>
      </trkpt>
      <trkpt lat="45.98744" lon="5.78437">
        <ele>763.658</ele>
        <time>2020-09-17T16:08:19Z</time>
      </trkpt>
      <trkpt lat="45.98844" lon="5.78344">
        <ele>758.852</ele>
        <time>2020-09-17T16:08:32Z</time>
      </trkpt>
      <trkpt lat="45.98968" lon="5.78302">
        <ele>742.317</ele>
        <time>2020-09-17T16:08:45Z</time>
      </trkpt>
      <trkpt lat="45.99021" lon="5.78235">
        <ele>734.408</ele>
        <time>2020-09-17T16:08:56Z</time>
      </trkpt>
      <trkpt lat="45.99027" lon="5.78253">
        <ele>728.96</ele>
        <time>2020-09-17T16:09:15Z</time>
      </trkpt>
      <trkpt lat="45.98922" lon="5.7843">
        <ele>718.031</ele>
        <time>2020-09-17T16:09:42Z</time>
      </trkpt>
      <trkpt lat="45.98687" lon="5.78774">
        <ele>706.394</ele>
        <time>2020-09-17T16:10:05Z</time>
      </trkpt>
      <trkpt lat="45.98568" lon="5.79028">
        <ele>690.279</ele>
        <time>2020-09-17T16:10:27Z</time>
      </trkpt>
      <trkpt lat="45.98409" lon="5.79115">
        <ele>669.721</ele>
        <time>2020-09-17T16:11:00Z</time>
      </trkpt>
      <trkpt lat="45.98295" lon="5.79369">
        <ele>659.367</ele>
        <time>2020-09-17T16:11:14Z</time>
      </trkpt>
      <trkpt lat="45.98175" lon="5.79531">
        <ele>649.158</ele>
        <time>2020-09-17T16:11:25Z</time>
      </trkpt>
      <trkpt lat="45.98176" lon="5.79651">
        <ele>630.067</ele>
        <time>2020-09-17T16:11:55Z</time>
      </trkpt>
      <trkpt lat="45.98298" lon="5.79651">
        <ele>618.299</ele>
        <time>2020-09-17T16:12:16Z</time>
      </trkpt>
      <trkpt lat="45.98412" lon="5.79598">
        <ele>599.107</ele>
        <time>2020-09-17T16:12:35Z</time>
      </trkpt>
      <trkpt lat="45.98472" lon="5.79513">
        <ele>583.927</ele>
        <time>2020-09-17T16:15:02Z</time>
      </trkpt>
      <trkpt lat="45.98526" lon="5.79529">
        <ele>577.408</ele>
        <time>2020-09-17T16:15:16Z</time>
      </trkpt>
      <trkpt lat="45.9855" lon="5.79577">
        <ele>555.294</ele>
        <time>2020-09-17T16:15:39Z</time>
      </trkpt>
      <trkpt lat="45.9865" lon="5.79488">
        <ele>551.165</ele>
        <time>2020-09-17T16:15:46Z</time>
      </trkpt>
      <trkpt lat="45.98674" lon="5.79495">
        <ele>538.738</ele>
        <time>2020-09-17T16:15:57Z</time>
      </trkpt>
      <trkpt lat="45.98704" lon="5.79537">
        <ele>527.773</ele>
        <time>2020-09-17T16:16:04Z</time>
      </trkpt>
      <trkpt lat="45.98674" lon="5.79596">
        <ele>510.165</ele>
        <time>2020-09-17T16:16:14Z</time>
      </trkpt>
      <trkpt lat="45.98698" lon="5.79653">
        <ele>500.721</ele>
        <time>2020-09-17T16:16:26Z</time>
      </trkpt>
      <trkpt lat="45.98713" lon="5.79658">
        <ele>495.822</ele>
        <time>2020-09-17T16:16:37Z</time>
      </trkpt>
      <trkpt lat="45.98711" lon="5.79671">
        <ele>492.111</ele>
        <time>2020-09-17T16:16:59Z</time>
      </trkpt>
      <trkpt lat="45.98718" lon="5.79675">
        <ele>492.193</ele>
        <time>2020-09-17T16:17:12Z</time>
      </trkpt>
      <trkpt lat="45.98706" lon="5.79676">
        <ele>492.165</ele>
        <time>2020-09-17T16:17:16Z</time>
      </trkpt>
      <trkpt lat="45.9872" lon="5.79662">
        <ele>476.121</ele>
        <time>2020-09-17T16:17:28Z</time>
      </trkpt>
      <trkpt lat="45.98724" lon="5.79668">
        <ele>456.108</ele>
        <time>2020-09-17T16:17:35Z</time>
      </trkpt>
      <trkpt lat="45.98736" lon="5.79672">
        <ele>448.984</ele>
        <time>2020-09-17T16:17:51Z</time>
      </trkpt>
      <trkpt lat="45.98654" lon="5.79738">
        <ele>448.965</ele>
        <time>2020-09-17T16:17:56Z</time>
      </trkpt>
      <trkpt lat="45.98509" lon="5.79812">
        <ele>448.978</ele>
        <time>2020-09-17T16:18:04Z</time>
      </trkpt>
      <trkpt lat="45.98476" lon="5.79898">
        <ele>446.253</ele>
        <time>2020-09-17T16:18:08Z</time>
      </trkpt>
      <trkpt lat="45.98379" lon="5.80058">
        <ele>445.535</ele>
        <time>2020-09-17T16:18:16Z</time>
      </trkpt>
      <trkpt lat="45.98266" lon="5.80111">
        <ele>445.521</ele>
        <time>2020-09-17T16:18:23Z</time>
      </trkpt>
      <trkpt lat="45.98209" lon="5.80164">
        <ele>445.582</ele>
        <time>2020-09-17T16:18:26Z</time>
      </trkpt>
      <trkpt lat="45.98122" lon="5.80173">
        <ele>445.521</ele>
        <time>2020-09-17T16:18:32Z</time>
      </trkpt>
      <trkpt lat="45.98094" lon="5.80195">
        <ele>445.537</ele>
        <time>2020-09-17T16:18:34Z</time>
      </trkpt>
      <trkpt lat="45.98071" lon="5.8028">
        <ele>445.549</ele>
        <time>2020-09-17T16:18:38Z</time>
      </trkpt>
      <trkpt lat="45.98083" lon="5.80378">
        <ele>445.513</ele>
        <time>2020-09-17T16:18:41Z</time>
      </trkpt>
      <trkpt lat="45.98145" lon="5.80505">
        <ele>445.508</ele>
        <time>2020-09-17T16:18:46Z</time>
      </trkpt>
      <trkpt lat="45.98113" lon="5.80558">
        <ele>445.598</ele>
        <time>2020-09-17T16:18:52Z</time>
      </trkpt>
      <trkpt lat="45.97948" lon="5.8066">
        <ele>445.569</ele>
        <time>2020-09-17T16:19:00Z</time>
      </trkpt>
      <trkpt lat="45.9766" lon="5.80742">
        <ele>433.582</ele>
        <time>2020-09-17T16:19:11Z</time>
      </trkpt>
      <trkpt lat="45.97544" lon="5.80754">
        <ele>426.747</ele>
        <time>2020-09-17T16:19:16Z</time>
      </trkpt>
      <trkpt lat="45.97316" lon="5.80853">
        <ele>425.199</ele>
        <time>2020-09-17T16:19:25Z</time>
      </trkpt>
      <trkpt lat="45.97169" lon="5.80869">
        <ele>423.385</ele>
        <time>2020-09-17T16:19:35Z</time>
      </trkpt>
      <trkpt lat="45.97071" lon="5.80967">
        <ele>431.586</ele>
        <time>2020-09-17T16:19:44Z</time>
      </trkpt>
      <trkpt lat="45.97029" lon="5.80989">
        <ele>430.115</ele>
        <time>2020-09-17T16:19:48Z</time>
      </trkpt>
      <trkpt lat="45.96896" lon="5.81006">
        <ele>429.355</ele>
        <time>2020-09-17T16:20:00Z</time>
      </trkpt>
      <trkpt lat="45.96775" lon="5.80975">
        <ele>429.307</ele>
        <time>2020-09-17T16:20:11Z</time>
      </trkpt>
      <trkpt lat="45.96656" lon="5.81033">
        <ele>429.317</ele>
        <time>2020-09-17T16:20:22Z</time>
      </trkpt>
      <trkpt lat="45.96597" lon="5.81196">
        <ele>400.008</ele>
        <time>2020-09-17T16:20:35Z</time>
      </trkpt>
      <trkpt lat="45.96482" lon="5.81295">
        <ele>380.06</ele>
        <time>2020-09-17T16:20:44Z</time>
      </trkpt>
      <trkpt lat="45.96462" lon="5.81343">
        <ele>372.071</ele>
        <time>2020-09-17T16:20:47Z</time>
      </trkpt>
      <trkpt lat="45.96424" lon="5.81518">
        <ele>348.074</ele>
        <time>2020-09-17T16:20:55Z</time>
      </trkpt>
      <trkpt lat="45.96479" lon="5.81616">
        <ele>320.079</ele>
        <time>2020-09-17T16:21:06Z</time>
      </trkpt>
    </trkseg>
  </trk>
</gpx>